Time;durP1;ratioP1;P1;durP2;ratioP2;P2;SDS_P1;SDS_P2;PMS_P1;PMS_P2;Temp;Humidity;BMP_temperature;BMP_pressure;BME280_temperature;BME280_humidity;BME280_pressure;Samples;Min_cycle;Max_cycle;Signal;HPM_P1;HPM_P2
2022/03/23 00:03:03;;;;;;;62.67;38.58;;;;;;;;;;5051806;28;20503;-65
2022/03/23 00:06:08;;;;;;;67.82;37.90;;;;;;;;;;5051760;28;20532;-65
2022/03/23 00:09:14;;;;;;;67.53;40.03;;;;;;;;;;5051845;28;20044;-66
2022/03/23 00:12:18;;;;;;;62.92;37.83;;;;;;;;;;5051389;28;20421;-66
2022/03/23 00:15:22;;;;;;;61.67;36.00;;;;;;;;;;5051343;28;20068;-65
2022/03/23 00:18:26;;;;;;;70.13;35.33;;;;;;;;;;5051772;28;20499;-65
2022/03/23 00:21:31;;;;;;;67.55;37.90;;;;;;;;;;5051303;28;20049;-65
2022/03/23 00:24:35;;;;;;;65.57;37.47;;;;;;;;;;5051379;28;20036;-66
2022/03/23 00:27:40;;;;;;;60.10;35.28;;;;;;;;;;5051443;28;20261;-66
2022/03/23 00:30:45;;;;;;;67.95;37.97;;;;;;;;;;5050432;28;20059;-65
2022/03/23 00:33:51;;;;;;;64.32;37.60;;;;;;;;;;5051264;28;20408;-65
2022/03/23 00:36:55;;;;;;;51.83;34.65;;;;;;;;;;5051251;28;20056;-65
2022/03/23 00:40:00;;;;;;;65.95;35.42;;;;;;;;;;5050990;28;20227;-66
2022/03/23 00:43:04;;;;;;;66.65;40.78;;;;;;;;;;5050977;28;20052;-65
2022/03/23 00:46:08;;;;;;;66.38;35.90;;;;;;;;;;5050836;28;20051;-65
2022/03/23 00:49:13;;;;;;;59.85;33.28;;;;;;;;;;5050827;28;20044;-65
2022/03/23 00:52:18;;;;;;;57.13;34.83;;;;;;;;;;5051201;28;20051;-65
2022/03/23 00:55:22;;;;;;;59.95;33.10;;;;;;;;;;5050565;28;20036;-66
2022/03/23 00:58:27;;;;;;;53.55;32.45;;;;;;;;;;5038636;28;20043;-65
2022/03/23 01:01:32;;;;;;;54.78;33.20;;;;;;;;;;5050796;28;20040;-65
2022/03/23 01:04:37;;;;;;;49.90;30.50;;;;;;;;;;5050496;28;20052;-65
2022/03/23 01:07:41;;;;;;;54.03;32.22;;;;;;;;;;5051025;28;20040;-65
2022/03/23 01:10:45;;;;;;;53.60;30.92;;;;;;;;;;5050106;28;20056;-65
2022/03/23 01:13:49;;;;;;;54.75;32.22;;;;;;;;;;5051872;28;20040;-66
2022/03/23 01:16:54;;;;;;;53.38;33.03;;;;;;;;;;5055029;28;20063;-66
2022/03/23 01:19:58;;;;;;;51.92;30.23;;;;;;;;;;5055108;28;20404;-66
2022/03/23 01:23:04;;;;;;;52.20;30.50;;;;;;;;;;5053770;28;20048;-64
2022/03/23 01:26:09;;;;;;;57.80;32.72;;;;;;;;;;5054070;28;20043;-65
2022/03/23 01:29:13;;;;;;;51.22;29.88;;;;;;;;;;5054857;28;20393;-65
2022/03/23 01:32:18;;;;;;;52.50;32.35;;;;;;;;;;5054873;28;20055;-66
2022/03/23 01:35:23;;;;;;;52.85;30.30;;;;;;;;;;5054732;28;20048;-66
2022/03/23 01:38:27;;;;;;;54.88;32.78;;;;;;;;;;5054328;28;20044;-66
2022/03/23 01:41:34;;;;;;;47.90;30.73;;;;;;;;;;5054560;28;20044;-65
2022/03/23 01:44:38;;;;;;;52.10;31.23;;;;;;;;;;5054544;28;20068;-65
2022/03/23 01:47:43;;;;;;;55.70;32.08;;;;;;;;;;5053334;28;20052;-65
2022/03/23 01:50:49;;;;;;;45.92;28.83;;;;;;;;;;5054199;28;20071;-65
2022/03/23 01:53:53;;;;;;;48.08;28.55;;;;;;;;;;5053223;28;20040;-66
2022/03/23 01:56:58;;;;;;;46.42;28.38;;;;;;;;;;5053844;28;20047;-66
2022/03/23 02:00:05;;;;;;;47.47;30.02;;;;;;;;;;5053482;28;20051;-66
2022/03/23 02:03:17;;;;;;;46.60;28.75;;;;;;;;;;5054015;28;20047;-66
2022/03/23 02:06:21;;;;;;;44.58;26.90;;;;;;;;;;5053959;28;20047;-65
2022/03/23 02:09:26;;;;;;;42.85;25.90;;;;;;;;;;5052946;28;20059;-66
2022/03/23 02:12:31;;;;;;;41.53;25.90;;;;;;;;;;5052921;28;20048;-65
2022/03/23 02:15:36;;;;;;;42.72;26.38;;;;;;;;;;5053261;28;20048;-65
2022/03/23 02:18:41;;;;;;;44.45;26.40;;;;;;;;;;5053599;28;20040;-65
2022/03/23 02:21:46;;;;;;;44.35;26.48;;;;;;;;;;5052701;28;20044;-66
2022/03/23 02:24:51;;;;;;;46.55;25.80;;;;;;;;;;5053301;28;20060;-66
2022/03/23 02:27:55;;;;;;;42.65;25.13;;;;;;;;;;5053803;28;20044;-65
2022/03/23 02:31:01;;;;;;;45.22;26.65;;;;;;;;;;5053475;28;20059;-65
2022/03/23 02:34:05;;;;;;;43.38;24.50;;;;;;;;;;5053494;28;20508;-65
2022/03/23 02:37:10;;;;;;;38.90;23.75;;;;;;;;;;5053456;28;20048;-65
2022/03/23 02:40:14;;;;;;;41.05;22.58;;;;;;;;;;5053373;28;20040;-65
2022/03/23 02:43:18;;;;;;;35.10;21.33;;;;;;;;;;5052500;28;20040;-66
2022/03/23 02:46:22;;;;;;;39.80;22.17;;;;;;;;;;5053164;28;20044;-66
2022/03/23 02:49:27;;;;;;;36.17;21.52;;;;;;;;;;5053231;28;20040;-66
2022/03/23 02:52:31;;;;;;;37.83;21.20;;;;;;;;;;5053404;28;20056;-66
2022/03/23 03:02:36;;;;;;;27.60;18.23;;;;;;;;;;5053211;28;20064;-65
2022/03/23 03:05:40;;;;;;;34.00;18.45;;;;;;;;;;5052649;28;20048;-65
2022/03/23 03:08:48;;;;;;;31.67;19.17;;;;;;;;;;5053019;28;20056;-66
2022/03/23 03:11:52;;;;;;;28.98;18.27;;;;;;;;;;5052799;28;20047;-66
2022/03/23 03:14:56;;;;;;;32.42;17.90;;;;;;;;;;5051844;28;20071;-66
2022/03/23 03:18:03;;;;;;;28.13;17.23;;;;;;;;;;5052542;28;20044;-66
2022/03/23 03:21:09;;;;;;;31.17;18.17;;;;;;;;;;5052623;28;20036;-65
2022/03/23 03:24:13;;;;;;;28.42;17.63;;;;;;;;;;5052874;28;20047;-66
2022/03/23 03:27:17;;;;;;;28.80;18.42;;;;;;;;;;5052562;28;20043;-65
2022/03/23 03:30:22;;;;;;;28.25;17.58;;;;;;;;;;5052438;28;20043;-65
2022/03/23 03:33:26;;;;;;;30.10;17.60;;;;;;;;;;5052445;28;20056;-64
2022/03/23 03:36:31;;;;;;;28.65;18.42;;;;;;;;;;5051358;28;20048;-65
2022/03/23 03:39:35;;;;;;;31.02;17.27;;;;;;;;;;5052270;28;20040;-65
2022/03/23 03:42:39;;;;;;;27.92;17.15;;;;;;;;;;5052109;28;20416;-65
2022/03/23 03:45:45;;;;;;;26.48;17.02;;;;;;;;;;5052114;28;20048;-65
2022/03/23 03:48:49;;;;;;;29.45;16.70;;;;;;;;;;5052154;28;20052;-65
2022/03/23 03:51:53;;;;;;;27.20;16.17;;;;;;;;;;5051953;28;20056;-65
2022/03/23 03:54:57;;;;;;;29.08;16.25;;;;;;;;;;5051931;28;20405;-65
2022/03/23 03:58:01;;;;;;;26.02;14.18;;;;;;;;;;5051161;28;20503;-65
2022/03/23 04:01:06;;;;;;;26.83;16.15;;;;;;;;;;5052029;28;20056;-65
2022/03/23 04:04:10;;;;;;;24.95;15.35;;;;;;;;;;5051760;28;20048;-65
2022/03/23 04:07:15;;;;;;;27.92;15.00;;;;;;;;;;5051864;28;20068;-65
2022/03/23 04:10:19;;;;;;;28.05;16.08;;;;;;;;;;5051812;28;20044;-65
2022/03/23 04:13:23;;;;;;;26.33;15.23;;;;;;;;;;5051441;28;20044;-65
2022/03/23 04:16:27;;;;;;;30.38;16.52;;;;;;;;;;5051698;28;20056;-65
2022/03/23 04:19:32;;;;;;;26.42;15.65;;;;;;;;;;5051694;28;20048;-65
2022/03/23 04:22:38;;;;;;;29.80;16.90;;;;;;;;;;5051625;28;20545;-65
2022/03/23 04:25:43;;;;;;;26.27;16.40;;;;;;;;;;5050454;28;20044;-65
2022/03/23 04:28:47;;;;;;;28.65;17.20;;;;;;;;;;5050749;28;20044;-64
2022/03/23 04:31:51;;;;;;;29.80;16.13;;;;;;;;;;5051035;28;20055;-65
2022/03/23 04:34:56;;;;;;;25.48;15.82;;;;;;;;;;5051201;28;20044;-65
2022/03/23 04:38:00;;;;;;;31.67;16.92;;;;;;;;;;5051083;28;20048;-65
2022/03/23 04:41:05;;;;;;;31.65;17.02;;;;;;;;;;5051280;28;20499;-66
2022/03/23 04:44:09;;;;;;;30.70;16.63;;;;;;;;;;5050941;28;20040;-65
2022/03/23 04:47:13;;;;;;;29.38;16.42;;;;;;;;;;5051430;28;20366;-66
2022/03/23 04:50:18;;;;;;;28.80;16.92;;;;;;;;;;5051221;28;20044;-66
2022/03/23 04:53:23;;;;;;;25.55;16.88;;;;;;;;;;5050974;28;20055;-65
2022/03/23 04:56:27;;;;;;;30.52;18.58;;;;;;;;;;5051075;28;20040;-65
2022/03/23 04:59:32;;;;;;;28.25;15.80;;;;;;;;;;5051053;28;20392;-65
2022/03/23 05:02:37;;;;;;;30.77;16.98;;;;;;;;;;5051020;28;20044;-67
2022/03/23 05:05:43;;;;;;;28.45;15.38;;;;;;;;;;5049681;28;20044;-65
2022/03/23 05:08:47;;;;;;;27.88;16.67;;;;;;;;;;5050865;28;20048;-65
2022/03/23 05:11:52;;;;;;;32.80;16.27;;;;;;;;;;5050946;28;20425;-65
2022/03/23 05:14:56;;;;;;;30.13;15.57;;;;;;;;;;5050722;28;20056;-64
2022/03/23 05:18:01;;;;;;;28.58;16.48;;;;;;;;;;5051151;28;20060;-65
2022/03/23 05:21:05;;;;;;;31.98;16.60;;;;;;;;;;5050769;28;20071;-65
2022/03/23 05:24:09;;;;;;;33.95;16.70;;;;;;;;;;5050746;28;20076;-66
2022/03/23 05:27:14;;;;;;;44.20;17.08;;;;;;;;;;5050906;28;20392;-66
2022/03/23 05:30:18;;;;;;;38.92;16.95;;;;;;;;;;5050660;28;20052;-65
2022/03/23 05:33:23;;;;;;;32.25;16.60;;;;;;;;;;5050565;28;20048;-66
2022/03/23 05:36:27;;;;;;;31.60;16.38;;;;;;;;;;5049585;28;20047;-66
2022/03/23 05:39:32;;;;;;;36.13;17.48;;;;;;;;;;5050500;28;20036;-65
2022/03/23 05:42:36;;;;;;;41.22;17.80;;;;;;;;;;5049756;28;20040;-62
2022/03/23 05:45:40;;;;;;;41.15;17.83;;;;;;;;;;5050233;28;20052;-64
2022/03/23 05:48:45;;;;;;;36.30;18.02;;;;;;;;;;5050343;28;20044;-65
2022/03/23 05:51:49;;;;;;;40.58;18.08;;;;;;;;;;5050280;28;20052;-65
2022/03/23 05:54:53;;;;;;;47.05;19.00;;;;;;;;;;5049607;28;20397;-64
2022/03/23 05:57:58;;;;;;;36.22;17.73;;;;;;;;;;5050164;28;20043;-65
2022/03/23 06:01:03;;;;;;;37.42;18.48;;;;;;;;;;5054146;28;20389;-64
2022/03/23 06:04:08;;;;;;;40.65;19.88;;;;;;;;;;5054101;28;20523;-64
2022/03/23 06:07:13;;;;;;;33.83;18.35;;;;;;;;;;5054323;28;20048;-67
2022/03/23 06:10:17;;;;;;;29.20;19.17;;;;;;;;;;5053977;28;20048;-64
2022/03/23 06:13:21;;;;;;;27.58;14.90;;;;;;;;;;5054204;28;20519;-63
2022/03/23 06:16:26;;;;;;;20.08;13.55;;;;;;;;;;5053343;28;20217;-64
2022/03/23 06:19:30;;;;;;;22.17;14.32;;;;;;;;;;5053609;28;20068;-63
2022/03/23 06:22:35;;;;;;;24.08;14.18;;;;;;;;;;5053031;28;20043;-65
2022/03/23 06:25:39;;;;;;;25.05;13.50;;;;;;;;;;5053641;28;20040;-64
2022/03/23 06:28:44;;;;;;;22.83;13.95;;;;;;;;;;5053627;28;20036;-64
2022/03/23 06:31:48;;;;;;;24.20;14.90;;;;;;;;;;5053606;28;20507;-65
2022/03/23 06:34:53;;;;;;;29.65;12.60;;;;;;;;;;5053334;28;20036;-62
2022/03/23 06:37:57;;;;;;;22.30;13.38;;;;;;;;;;5053297;28;20052;-65
2022/03/23 06:41:01;;;;;;;23.63;12.45;;;;;;;;;;5053707;28;20047;-66
2022/03/23 06:44:06;;;;;;;25.98;12.57;;;;;;;;;;5053082;28;20040;-65
2022/03/23 06:47:10;;;;;;;27.02;12.50;;;;;;;;;;5053412;28;20043;-63
2022/03/23 06:50:14;;;;;;;18.58;11.25;;;;;;;;;;5052755;28;20048;-63
2022/03/23 06:53:19;;;;;;;20.10;11.77;;;;;;;;;;5053281;28;20052;-64
2022/03/23 06:56:23;;;;;;;16.73;10.90;;;;;;;;;;5052937;28;20052;-63
2022/03/23 06:59:27;;;;;;;27.20;11.65;;;;;;;;;;5053103;28;20203;-66
2022/03/23 07:02:32;;;;;;;26.83;11.52;;;;;;;;;;5052748;28;20044;-64
2022/03/23 07:05:36;;;;;;;20.73;10.40;;;;;;;;;;5052851;28;20052;-65
2022/03/23 07:12:05;;;;;;;20.42;12.05;;;;;;;;;;5052553;28;20048;-66
2022/03/23 07:15:09;;;;;;;19.27;11.80;;;;;;;;;;5052497;28;20432;-69
2022/03/23 07:18:14;;;;;;;20.63;10.65;;;;;;;;;;5052670;28;20044;-68
2022/03/23 07:21:18;;;;;;;20.75;10.93;;;;;;;;;;5052934;28;20048;-67
2022/03/23 07:24:23;;;;;;;20.52;11.90;;;;;;;;;;5051901;28;20068;-66
2022/03/23 07:27:27;;;;;;;22.63;11.40;;;;;;;;;;5052879;28;20044;-67
2022/03/23 07:30:36;;;;;;;18.73;12.43;;;;;;;;;;5052082;28;20051;-66
2022/03/23 07:33:40;;;;;;;24.10;13.20;;;;;;;;;;5051178;28;20075;-66
2022/03/23 07:36:45;;;;;;;18.42;11.90;;;;;;;;;;5052291;28;20044;-68
2022/03/23 07:39:50;;;;;;;20.27;11.48;;;;;;;;;;5052201;28;20047;-66
2022/03/23 07:42:54;;;;;;;25.83;12.68;;;;;;;;;;5051467;28;20047;-67
2022/03/23 07:45:58;;;;;;;22.52;12.63;;;;;;;;;;5051800;28;20043;-62
2022/03/23 07:49:03;;;;;;;31.00;12.02;;;;;;;;;;5051980;28;20036;-64
2022/03/23 07:52:07;;;;;;;21.98;13.13;;;;;;;;;;5051933;28;20120;-63
2022/03/23 07:55:11;;;;;;;20.85;11.65;;;;;;;;;;5051464;28;20044;-63
2022/03/23 07:58:16;;;;;;;19.85;12.57;;;;;;;;;;5051352;28;20047;-64
2022/03/23 08:01:20;;;;;;;18.17;11.80;;;;;;;;;;5051592;28;20064;-65
2022/03/23 08:04:25;;;;;;;20.73;11.75;;;;;;;;;;5051194;28;20048;-72
2022/03/23 08:07:29;;;;;;;25.67;11.85;;;;;;;;;;5051598;28;20040;-65
2022/03/23 08:10:34;;;;;;;20.88;12.35;;;;;;;;;;5051097;28;20059;-66
2022/03/23 08:13:39;;;;;;;23.30;13.20;;;;;;;;;;5051728;28;20124;-66
2022/03/23 08:16:43;;;;;;;28.13;13.13;;;;;;;;;;5051235;28;20059;-65
2022/03/23 08:20:32;;;;;;;23.60;12.38;;;;;;;;;;5039014;28;20047;-63
2022/03/23 08:23:15;;;;;;;19.58;12.35;;;;;;;;;;5050749;28;20044;-65
2022/03/23 08:26:20;;;;;;;31.73;13.40;;;;;;;;;;5050695;28;20241;-66
2022/03/23 08:29:24;;;;;;;23.88;12.75;;;;;;;;;;5050914;28;20052;-67
2022/03/23 08:32:28;;;;;;;19.25;12.73;;;;;;;;;;5050922;28;20056;-68
2022/03/23 08:35:34;;;;;;;22.52;13.45;;;;;;;;;;5050914;28;20059;-68
2022/03/23 08:38:38;;;;;;;21.27;13.02;;;;;;;;;;5051083;28;20052;-67
2022/03/23 08:41:43;;;;;;;28.15;13.43;;;;;;;;;;5050985;28;20043;-66
2022/03/23 08:44:47;;;;;;;24.98;12.48;;;;;;;;;;5050920;28;20503;-66
2022/03/23 08:47:52;;;;;;;18.25;11.65;;;;;;;;;;5051151;28;20052;-66
2022/03/23 08:50:56;;;;;;;32.75;14.68;;;;;;;;;;5050329;28;20052;-64
2022/03/23 08:54:01;;;;;;;19.80;12.50;;;;;;;;;;5051106;28;20512;-68
2022/03/23 08:57:05;;;;;;;18.20;11.93;;;;;;;;;;5050667;28;20048;-67
2022/03/23 09:00:14;;;;;;;26.35;12.18;;;;;;;;;;5050648;28;20047;-69
2022/03/23 09:03:18;;;;;;;22.92;11.98;;;;;;;;;;5050885;28;20492;-66
2022/03/23 09:06:23;;;;;;;20.20;12.13;;;;;;;;;;5050431;28;20044;-68
2022/03/23 09:09:27;;;;;;;19.05;12.23;;;;;;;;;;5049810;28;20059;-63
2022/03/23 09:12:31;;;;;;;19.92;12.48;;;;;;;;;;5050547;28;20052;-63
2022/03/23 09:15:36;;;;;;;21.02;12.27;;;;;;;;;;5049629;28;20056;-62
2022/03/23 09:18:40;;;;;;;21.95;12.27;;;;;;;;;;5050161;28;20504;-63
2022/03/23 09:21:44;;;;;;;19.65;12.25;;;;;;;;;;5050580;28;20048;-64
2022/03/23 09:24:48;;;;;;;21.00;12.02;;;;;;;;;;5050032;28;20511;-63
2022/03/23 09:27:53;;;;;;;21.30;12.20;;;;;;;;;;5050106;28;20048;-63
2022/03/23 09:30:58;;;;;;;18.80;11.20;;;;;;;;;;5049935;28;20043;-66
2022/03/23 09:34:03;;;;;;;20.35;12.18;;;;;;;;;;5051117;28;20524;-69
2022/03/23 09:40:32;;;;;;;20.88;12.43;;;;;;;;;;5054382;28;20036;-65
2022/03/23 09:43:36;;;;;;;22.85;11.98;;;;;;;;;;5054091;28;20048;-68
2022/03/23 09:46:41;;;;;;;19.30;11.80;;;;;;;;;;5054346;28;20059;-66
2022/03/23 09:49:45;;;;;;;20.52;11.45;;;;;;;;;;5054545;28;20048;-67
2022/03/23 09:52:50;;;;;;;25.20;11.68;;;;;;;;;;5054330;28;20507;-66
2022/03/23 09:55:55;;;;;;;18.88;11.13;;;;;;;;;;5054404;28;20040;-63
2022/03/23 09:59:00;;;;;;;18.70;11.73;;;;;;;;;;5053982;28;20048;-63
2022/03/23 10:02:04;;;;;;;24.00;11.95;;;;;;;;;;5053883;28;20048;-67
2022/03/23 10:05:27;;;;;;;24.40;12.50;;;;;;;;;;5053836;28;20056;-66
2022/03/23 10:08:49;;;;;;;14.93;11.18;;;;;;;;;;5053748;28;20060;-65
2022/03/23 10:12:06;;;;;;;25.92;12.20;;;;;;;;;;5053720;28;20051;-64
2022/03/23 10:15:29;;;;;;;19.50;12.43;;;;;;;;;;5053356;28;20051;-66
2022/03/23 10:18:45;;;;;;;27.92;11.80;;;;;;;;;;5054010;28;20504;-65
2022/03/23 10:21:50;;;;;;;20.48;11.82;;;;;;;;;;5053523;28;20040;-67
2022/03/23 10:24:55;;;;;;;18.60;11.52;;;;;;;;;;5053340;28;20051;-64
2022/03/23 10:27:59;;;;;;;17.30;12.23;;;;;;;;;;5053553;28;20056;-65
2022/03/23 10:31:14;;;;;;;18.10;11.60;;;;;;;;;;5053235;28;20139;-71
2022/03/23 10:34:18;;;;;;;18.52;11.60;;;;;;;;;;5052763;28;20059;-66
2022/03/23 10:37:30;;;;;;;17.65;10.65;;;;;;;;;;5053450;28;20040;-62
2022/03/23 10:40:34;;;;;;;21.10;12.23;;;;;;;;;;5053479;28;20101;-63
2022/03/23 10:43:39;;;;;;;19.45;11.63;;;;;;;;;;5053175;28;20040;-66
2022/03/23 10:46:44;;;;;;;19.30;12.02;;;;;;;;;;5053221;28;20048;-66
2022/03/23 10:49:48;;;;;;;24.77;12.23;;;;;;;;;;5053340;28;20392;-66
2022/03/23 10:52:54;;;;;;;17.30;11.35;;;;;;;;;;5052863;28;20067;-67
2022/03/23 10:55:58;;;;;;;15.90;11.02;;;;;;;;;;5052245;28;20056;-65
2022/03/23 10:59:23;;;;;;;20.00;11.73;;;;;;;;;;5052777;28;20040;-66
2022/03/23 11:02:28;;;;;;;19.13;10.70;;;;;;;;;;5052164;28;20512;-68
2022/03/23 11:05:38;;;;;;;17.85;10.70;;;;;;;;;;5052103;28;20040;-68
2022/03/23 11:08:44;;;;;;;19.40;10.32;;;;;;;;;;5051312;28;20044;-66
2022/03/23 11:18:40;;;;;;;30.35;11.85;;;;;;;;;;5051939;28;20425;-65
2022/03/23 11:22:04;;;;;;;16.90;10.10;;;;;;;;;;5052106;28;20067;-64
2022/03/23 11:25:08;;;;;;;30.77;11.85;;;;;;;;;;5052331;28;20052;-65
2022/03/23 11:28:14;;;;;;;16.95;10.35;;;;;;;;;;5052349;28;20040;-65
2022/03/23 11:31:19;;;;;;;17.80;10.95;;;;;;;;;;5052131;28;20052;-64
2022/03/23 11:34:24;;;;;;;14.80;10.63;;;;;;;;;;5052208;28;20108;-64
2022/03/23 11:37:29;;;;;;;22.58;11.55;;;;;;;;;;5052299;28;20056;-68
2022/03/23 11:40:34;;;;;;;65.50;14.02;;;;;;;;;;5051946;28;20196;-63
2022/03/23 11:43:38;;;;;;;17.00;10.23;;;;;;;;;;5052095;28;20491;-64
2022/03/23 11:46:43;;;;;;;28.55;11.15;;;;;;;;;;5052195;28;20063;-64
2022/03/23 11:49:50;;;;;;;16.35;10.43;;;;;;;;;;5051986;28;20372;-65
2022/03/23 11:53:04;;;;;;;16.05;9.88;;;;;;;;;;5051860;28;20063;-66
2022/03/23 11:56:10;;;;;;;15.77;10.20;;;;;;;;;;5050800;28;20035;-64
2022/03/23 11:59:18;;;;;;;16.48;9.80;;;;;;;;;;5052068;28;20102;-63
2022/03/23 12:02:39;;;;;;;14.82;9.45;;;;;;;;;;5051674;28;20047;-65
2022/03/23 12:05:51;;;;;;;20.10;9.87;;;;;;;;;;5051475;28;20044;-63
2022/03/23 12:08:58;;;;;;;20.92;10.55;;;;;;;;;;5051638;28;20040;-64
2022/03/23 12:12:11;;;;;;;16.02;10.00;;;;;;;;;;5051274;28;20408;-64
2022/03/23 12:15:30;;;;;;;18.40;11.07;;;;;;;;;;5051324;28;20048;-64
2022/03/23 12:18:38;;;;;;;20.20;11.35;;;;;;;;;;5051086;28;20047;-64
2022/03/23 12:22:06;;;;;;;16.13;10.48;;;;;;;;;;5051458;28;20044;-63
2022/03/23 12:25:13;;;;;;;19.77;10.48;;;;;;;;;;5051522;28;20067;-64
2022/03/23 12:28:36;;;;;;;16.60;10.73;;;;;;;;;;5051294;28;20055;-64
2022/03/23 12:31:41;;;;;;;23.83;11.73;;;;;;;;;;5050792;28;20051;-65
2022/03/23 12:34:45;;;;;;;20.38;10.95;;;;;;;;;;5051136;28;20052;-64
2022/03/23 12:37:50;;;;;;;18.10;10.80;;;;;;;;;;5051292;28;20601;-64
2022/03/23 12:40:56;;;;;;;15.40;10.23;;;;;;;;;;5050361;28;20056;-64
2022/03/23 12:44:11;;;;;;;14.40;10.35;;;;;;;;;;5050971;28;20199;-65
2022/03/23 12:47:20;;;;;;;18.38;11.52;;;;;;;;;;5051147;28;20047;-63
2022/03/23 13:00:49;;;;;;;13.98;10.10;;;;;;;;;;5048965;28;20044;-64
2022/03/23 13:03:55;;;;;;;16.13;10.60;;;;;;;;;;5049021;28;20048;-62
2022/03/23 13:06:59;;;;;;;19.27;11.10;;;;;;;;;;5048752;28;20052;-66
2022/03/23 13:10:06;;;;;;;22.75;11.27;;;;;;;;;;5048712;28;20048;-62
2022/03/23 13:13:11;;;;;;;18.02;10.52;;;;;;;;;;5048382;28;20059;-62
2022/03/23 13:16:16;;;;;;;20.33;11.63;;;;;;;;;;5048296;28;20052;-64
2022/03/23 13:19:21;;;;;;;16.17;11.00;;;;;;;;;;5047618;28;20055;-63
2022/03/23 13:22:36;;;;;;;18.58;10.60;;;;;;;;;;5049454;28;20489;-65
2022/03/23 13:25:42;;;;;;;16.65;9.85;;;;;;;;;;5050953;28;20047;-65
2022/03/23 13:28:54;;;;;;;16.40;11.18;;;;;;;;;;5050628;28;20040;-65
2022/03/23 13:32:03;;;;;;;30.90;11.23;;;;;;;;;;5049712;28;20052;-66
2022/03/23 13:35:15;;;;;;;14.10;10.30;;;;;;;;;;5049683;28;20052;-65
2022/03/23 13:38:19;;;;;;;15.20;9.75;;;;;;;;;;5050469;28;20060;-64
2022/03/23 13:44:55;;;;;;;16.42;10.63;;;;;;;;;;5050045;28;20036;-66
2022/03/23 13:48:00;;;;;;;18.58;10.82;;;;;;;;;;5050493;28;20040;-66
2022/03/23 13:51:05;;;;;;;14.27;10.07;;;;;;;;;;5050344;28;20491;-67
2022/03/23 13:54:10;;;;;;;20.25;11.18;;;;;;;;;;5050529;28;20051;-68
2022/03/23 13:57:15;;;;;;;17.33;11.07;;;;;;;;;;5050565;28;20044;-66
2022/03/23 14:00:23;;;;;;;19.98;10.90;;;;;;;;;;5050657;28;20048;-66
2022/03/23 14:03:34;;;;;;;14.23;9.63;;;;;;;;;;5050237;28;20070;-67
2022/03/23 14:06:45;;;;;;;14.88;9.98;;;;;;;;;;5050489;28;20036;-67
2022/03/23 14:09:49;;;;;;;29.67;12.48;;;;;;;;;;5050202;28;20504;-63
2022/03/23 14:12:54;;;;;;;16.33;10.27;;;;;;;;;;5050396;28;20056;-67
2022/03/23 14:15:59;;;;;;;25.35;12.60;;;;;;;;;;5037487;28;20539;-66
2022/03/23 14:19:05;;;;;;;20.60;11.65;;;;;;;;;;5050064;28;20503;-66
2022/03/23 14:22:11;;;;;;;18.55;10.13;;;;;;;;;;5053694;28;20048;-66
2022/03/23 14:25:17;;;;;;;16.42;10.57;;;;;;;;;;5052033;28;20412;-64
2022/03/23 14:28:22;;;;;;;20.75;10.60;;;;;;;;;;5052669;28;20052;-63
2022/03/23 14:31:27;;;;;;;15.48;10.38;;;;;;;;;;5053288;28;20048;-74
2022/03/23 14:34:31;;;;;;;20.83;10.85;;;;;;;;;;5053453;28;20111;-68
2022/03/23 14:37:44;;;;;;;16.02;9.85;;;;;;;;;;5053624;28;20040;-70
2022/03/23 14:40:52;;;;;;;14.68;10.52;;;;;;;;;;5053326;28;20108;-67
2022/03/23 14:43:57;;;;;;;15.60;10.15;;;;;;;;;;5053679;28;20048;-68
2022/03/23 14:47:09;;;;;;;14.55;10.10;;;;;;;;;;5053377;28;20048;-71
2022/03/23 14:50:12;;;;;;;20.10;10.90;;;;;;;;;;5053141;28;20040;-65
2022/03/23 14:53:18;;;;;;;17.48;9.88;;;;;;;;;;5053108;28;20401;-64
2022/03/23 14:56:22;;;;;;;17.05;10.32;;;;;;;;;;5053291;28;20044;-65
2022/03/23 14:59:29;;;;;;;17.13;10.27;;;;;;;;;;5053190;28;20052;-65
2022/03/23 15:02:33;;;;;;;15.82;10.15;;;;;;;;;;5052606;28;20044;-65
2022/03/23 15:15:45;;;;;;;15.00;10.05;;;;;;;;;;5051394;28;20048;-67
2022/03/23 15:18:50;;;;;;;17.45;9.38;;;;;;;;;;5051741;28;20432;-65
2022/03/23 15:21:55;;;;;;;14.18;9.38;;;;;;;;;;5052667;28;20052;-66
2022/03/23 15:24:59;;;;;;;18.15;9.95;;;;;;;;;;5052428;28;20043;-66
2022/03/23 15:28:05;;;;;;;17.30;9.77;;;;;;;;;;5052267;28;20036;-66
2022/03/23 15:31:09;;;;;;;17.98;10.38;;;;;;;;;;5051376;28;20044;-65
2022/03/23 15:34:14;;;;;;;22.23;10.02;;;;;;;;;;5052349;28;20120;-67
2022/03/23 15:37:22;;;;;;;17.85;10.35;;;;;;;;;;5052442;28;20499;-65
2022/03/23 15:40:27;;;;;;;20.80;10.07;;;;;;;;;;5052156;28;20047;-66
2022/03/23 15:43:32;;;;;;;15.65;9.32;;;;;;;;;;5051293;28;20507;-63
2022/03/23 15:46:37;;;;;;;18.98;10.38;;;;;;;;;;5051774;28;20048;-65
2022/03/23 15:49:44;;;;;;;22.15;10.25;;;;;;;;;;5051141;28;20044;-65
2022/03/23 15:52:48;;;;;;;17.80;10.80;;;;;;;;;;5051705;28;20409;-65
2022/03/23 15:55:53;;;;;;;39.08;23.35;;;;;;;;;;5051629;28;20531;-64
2022/03/23 15:58:58;;;;;;;22.58;16.33;;;;;;;;;;5051601;28;20048;-65
2022/03/23 16:02:02;;;;;;;17.77;11.23;;;;;;;;;;5051924;28;20516;-64
2022/03/23 16:05:07;;;;;;;16.58;10.10;;;;;;;;;;5051547;28;20500;-65
2022/03/23 16:08:12;;;;;;;15.63;9.90;;;;;;;;;;5050576;28;20427;-65
2022/03/23 16:11:16;;;;;;;24.20;9.73;;;;;;;;;;5051699;28;20064;-65
2022/03/23 16:14:20;;;;;;;21.80;9.63;;;;;;;;;;5050748;28;20067;-66
2022/03/23 16:17:26;;;;;;;12.90;8.90;;;;;;;;;;5051345;28;20052;-66
2022/03/23 16:20:31;;;;;;;14.05;9.45;;;;;;;;;;5051520;28;20052;-66
2022/03/23 16:23:35;;;;;;;18.27;10.25;;;;;;;;;;5051414;28;20048;-65
2022/03/23 16:26:39;;;;;;;21.48;11.60;;;;;;;;;;5050368;28;20052;-65
2022/03/23 16:29:44;;;;;;;24.95;12.02;;;;;;;;;;5051329;28;20052;-66
2022/03/23 16:32:48;;;;;;;21.45;10.45;;;;;;;;;;5050358;28;20156;-65
2022/03/23 16:35:57;;;;;;;17.95;11.73;;;;;;;;;;5051095;28;20388;-65
2022/03/23 16:39:02;;;;;;;19.67;10.65;;;;;;;;;;5051182;28;20048;-64
2022/03/23 16:42:06;;;;;;;20.67;10.38;;;;;;;;;;5050662;28;20039;-65
2022/03/23 16:45:12;;;;;;;18.27;10.60;;;;;;;;;;5050467;28;20048;-65
2022/03/23 16:48:16;;;;;;;21.23;11.52;;;;;;;;;;5049873;28;20385;-64
2022/03/23 16:51:21;;;;;;;17.77;11.23;;;;;;;;;;5051060;28;20063;-64
2022/03/23 16:54:28;;;;;;;23.50;12.25;;;;;;;;;;5050435;28;20048;-65
2022/03/23 16:57:33;;;;;;;18.90;11.98;;;;;;;;;;5050503;28;20428;-66
2022/03/23 17:00:37;;;;;;;25.63;11.25;;;;;;;;;;5051149;28;20047;-73
2022/03/23 17:13:56;;;;;;;20.52;12.23;;;;;;;;;;5049568;28;20082;-67
2022/03/23 17:17:01;;;;;;;16.83;11.25;;;;;;;;;;5049622;28;20052;-65
2022/03/23 17:20:07;;;;;;;22.05;12.02;;;;;;;;;;5049349;28;20044;-67
2022/03/23 17:23:11;;;;;;;23.70;12.55;;;;;;;;;;5050780;28;20044;-64
2022/03/23 17:26:18;;;;;;;20.45;11.68;;;;;;;;;;5050598;28;20052;-65
2022/03/23 17:29:22;;;;;;;25.60;12.30;;;;;;;;;;5049801;28;20044;-67
2022/03/23 17:32:28;;;;;;;22.75;13.35;;;;;;;;;;5049674;28;20052;-69
2022/03/23 17:35:32;;;;;;;26.40;14.75;;;;;;;;;;5050406;28;20064;-65
2022/03/23 17:38:38;;;;;;;26.48;13.52;;;;;;;;;;5050422;28;20488;-64
2022/03/23 17:41:43;;;;;;;25.92;16.48;;;;;;;;;;5050336;28;20056;-67
2022/03/23 17:44:47;;;;;;;31.42;20.10;;;;;;;;;;5050207;28;20044;-65
2022/03/23 17:47:52;;;;;;;42.15;24.02;;;;;;;;;;5050023;28;20044;-65
2022/03/23 17:50:57;;;;;;;27.25;14.50;;;;;;;;;;5049867;28;20040;-66
2022/03/23 17:54:01;;;;;;;22.08;13.20;;;;;;;;;;5049688;28;20056;-65
2022/03/23 17:57:07;;;;;;;25.98;14.50;;;;;;;;;;5053794;28;20039;-65
2022/03/23 18:00:13;;;;;;;24.48;15.05;;;;;;;;;;5054133;28;20416;-67
2022/03/23 18:03:18;;;;;;;27.58;13.90;;;;;;;;;;5053389;28;20508;-68
2022/03/23 18:06:23;;;;;;;30.98;13.98;;;;;;;;;;5052992;28;20055;-66
2022/03/23 18:09:27;;;;;;;31.63;15.48;;;;;;;;;;5053268;28;20047;-68
2022/03/23 18:12:32;;;;;;;38.35;16.17;;;;;;;;;;5053624;28;20111;-67
2022/03/23 18:15:37;;;;;;;45.35;19.05;;;;;;;;;;5052479;28;20059;-68
2022/03/23 18:18:42;;;;;;;40.13;18.98;;;;;;;;;;5053484;28;20501;-67
2022/03/23 18:21:47;;;;;;;35.45;21.58;;;;;;;;;;5053209;28;20503;-66
2022/03/23 18:24:53;;;;;;;40.80;24.10;;;;;;;;;;5053046;28;20049;-66
2022/03/23 18:27:57;;;;;;;48.17;25.30;;;;;;;;;;5053176;28;20043;-65
2022/03/23 18:31:01;;;;;;;53.03;25.67;;;;;;;;;;5052421;28;20535;-66
2022/03/23 18:34:07;;;;;;;41.10;24.40;;;;;;;;;;5053140;28;20064;-65
2022/03/23 18:37:12;;;;;;;47.28;24.63;;;;;;;;;;5053241;28;20385;-65
2022/03/23 18:40:16;;;;;;;43.05;27.35;;;;;;;;;;5052679;28;20396;-66
2022/03/23 18:43:20;;;;;;;46.10;27.42;;;;;;;;;;5052501;28;20048;-65
2022/03/23 18:46:25;;;;;;;54.75;29.98;;;;;;;;;;5053187;28;20044;-65
2022/03/23 18:49:30;;;;;;;60.83;31.02;;;;;;;;;;5052977;28;20048;-66
2022/03/23 18:52:34;;;;;;;54.60;33.28;;;;;;;;;;5052732;28;20666;-65
2022/03/23 18:55:39;;;;;;;61.05;35.78;;;;;;;;;;5052600;28;20334;-65
2022/03/23 18:58:44;;;;;;;66.10;35.35;;;;;;;;;;5052324;28;20552;-65